Frazier, North Dakota
Current Conditions -  °F | °C
As of 2:26 AM on Sunday 21 Dec 2014 (Local Time) from KJMS Reporting Station
Haze Haze  
Wind Chill: 15°   Ceiling: 200
Heat Index: 25°   Visibility: 1mi
Dew Point: 22°   Wind: 10mph
Humidity: 88%   Direction: 180°S
Pressure: 29.75"   Gusts: NA
Location:  47.1102°N, 98.4039°W
Report Text: KJMS 210826Z AUTO 18009KT 1SM BR VV002 M04/M06 A2975 RMK AO2 I1000 T10391056
Loading
Personal Weather Stations






























Interactive Weather Map New forecast layout! Learn more

10-Day Weather Forecast

Advertisements
Track Severe Weather on mobile